sensor_id;sensor_type;location;lat;lon;timestamp;temperature;humidity
17152;DHT22;8691;50.828;4.700;2023-06-04T00:01:05;13.40;91.30
17152;DHT22;8691;50.828;4.700;2023-06-04T00:03:42;13.30;91.90
17152;DHT22;8691;50.828;4.700;2023-06-04T00:06:18;13.30;92.60
17152;DHT22;8691;50.828;4.700;2023-06-04T00:08:55;13.20;93.20
17152;DHT22;8691;50.828;4.700;2023-06-04T00:11:32;13.00;93.60
17152;DHT22;8691;50.828;4.700;2023-06-04T00:14:08;12.90;94.10
17152;DHT22;8691;50.828;4.700;2023-06-04T00:16:45;12.80;94.80
17152;DHT22;8691;50.828;4.700;2023-06-04T00:19:22;12.70;95.50
17152;DHT22;8691;50.828;4.700;2023-06-04T00:21:58;12.70;96.40
17152;DHT22;8691;50.828;4.700;2023-06-04T00:24:36;12.70;97.00
17152;DHT22;8691;50.828;4.700;2023-06-04T00:27:12;12.60;97.80
17152;DHT22;8691;50.828;4.700;2023-06-04T00:29:48;12.60;98.30
17152;DHT22;8691;50.828;4.700;2023-06-04T00:32:25;12.50;98.70
17152;DHT22;8691;50.828;4.700;2023-06-04T00:35:02;12.50;98.80
17152;DHT22;8691;50.828;4.700;2023-06-04T00:37:38;12.40;99.20
17152;DHT22;8691;50.828;4.700;2023-06-04T00:40:15;12.30;99.60
17152;DHT22;8691;50.828;4.700;2023-06-04T00:42:51;12.30;99.90
17152;DHT22;8691;50.828;4.700;2023-06-04T00:45:28;12.30;99.90
17152;DHT22;8691;50.828;4.700;2023-06-04T00:48:05;12.20;99.90
17152;DHT22;8691;50.828;4.700;2023-06-04T00:50:42;12.20;99.90
17152;DHT22;8691;50.828;4.700;2023-06-04T00:53:19;12.20;99.90
17152;DHT22;8691;50.828;4.700;2023-06-04T00:55:55;12.20;99.90
17152;DHT22;8691;50.828;4.700;2023-06-04T00:58:33;12.20;99.90
17152;DHT22;8691;50.828;4.700;2023-06-04T01:01:54;12.30;99.60
17152;DHT22;8691;50.828;4.700;2023-06-04T01:03:51;12.30;99.20
17152;DHT22;8691;50.828;4.700;2023-06-04T01:09:06;12.40;98.50
17152;DHT22;8691;50.828;4.700;2023-06-04T01:11:43;12.40;98.30
17152;DHT22;8691;50.828;4.700;2023-06-04T01:14:20;12.40;98.20
17152;DHT22;8691;50.828;4.700;2023-06-04T01:17:00;12.40;98.10
17152;DHT22;8691;50.828;4.700;2023-06-04T01:28:05;12.50;97.90
17152;DHT22;8691;50.828;4.700;2023-06-04T01:30:45;12.40;97.80
17152;DHT22;8691;50.828;4.700;2023-06-04T01:33:24;12.40;97.80
17152;DHT22;8691;50.828;4.700;2023-06-04T01:36:00;12.40;97.90
17152;DHT22;8691;50.828;4.700;2023-06-04T01:38:37;12.30;98.00
17152;DHT22;8691;50.828;4.700;2023-06-04T01:41:14;12.30;98.20
17152;DHT22;8691;50.828;4.700;2023-06-04T01:43:51;12.30;98.20
17152;DHT22;8691;50.828;4.700;2023-06-04T01:46:27;12.30;98.30
17152;DHT22;8691;50.828;4.700;2023-06-04T01:49:04;12.20;98.30
17152;DHT22;8691;50.828;4.700;2023-06-04T01:51:40;12.20;98.40
17152;DHT22;8691;50.828;4.700;2023-06-04T01:54:17;12.20;98.40
17152;DHT22;8691;50.828;4.700;2023-06-04T01:56:54;12.10;98.60
17152;DHT22;8691;50.828;4.700;2023-06-04T01:59:31;12.00;98.80
17152;DHT22;8691;50.828;4.700;2023-06-04T02:02:07;12.00;99.00
17152;DHT22;8691;50.828;4.700;2023-06-04T02:04:44;11.90;99.10
17152;DHT22;8691;50.828;4.700;2023-06-04T02:07:20;11.90;99.20
17152;DHT22;8691;50.828;4.700;2023-06-04T02:09:57;11.90;99.30
17152;DHT22;8691;50.828;4.700;2023-06-04T02:12:35;11.90;99.50
17152;DHT22;8691;50.828;4.700;2023-06-04T02:15:10;11.90;99.50
17152;DHT22;8691;50.828;4.700;2023-06-04T02:17:47;11.80;99.50
17152;DHT22;8691;50.828;4.700;2023-06-04T02:20:24;11.80;99.60
17152;DHT22;8691;50.828;4.700;2023-06-04T02:23:00;11.80;99.60
17152;DHT22;8691;50.828;4.700;2023-06-04T02:25:37;11.80;99.80
17152;DHT22;8691;50.828;4.700;2023-06-04T02:28:13;11.80;99.90
17152;DHT22;8691;50.828;4.700;2023-06-04T02:30:50;11.70;99.90
17152;DHT22;8691;50.828;4.700;2023-06-04T02:33:27;11.70;99.90
17152;DHT22;8691;50.828;4.700;2023-06-04T02:36:04;11.60;99.90
17152;DHT22;8691;50.828;4.700;2023-06-04T02:38:40;11.60;99.90
17152;DHT22;8691;50.828;4.700;2023-06-04T02:41:17;11.60;99.90
17152;DHT22;8691;50.828;4.700;2023-06-04T02:43:54;11.60;99.90
17152;DHT22;8691;50.828;4.700;2023-06-04T02:46:30;11.50;99.90
17152;DHT22;8691;50.828;4.700;2023-06-04T02:49:07;11.50;99.90
17152;DHT22;8691;50.828;4.700;2023-06-04T02:51:44;11.50;99.90
17152;DHT22;8691;50.828;4.700;2023-06-04T02:54:20;11.40;99.90
17152;DHT22;8691;50.828;4.700;2023-06-04T02:56:57;11.40;99.90
17152;DHT22;8691;50.828;4.700;2023-06-04T02:59:34;11.40;99.90
17152;DHT22;8691;50.828;4.700;2023-06-04T03:02:10;11.40;99.90
17152;DHT22;8691;50.828;4.700;2023-06-04T03:04:47;11.30;99.90
17152;DHT22;8691;50.828;4.700;2023-06-04T03:07:23;11.30;99.90
17152;DHT22;8691;50.828;4.700;2023-06-04T03:10:00;11.30;99.90
17152;DHT22;8691;50.828;4.700;2023-06-04T03:12:37;11.30;99.90
17152;DHT22;8691;50.828;4.700;2023-06-04T03:15:14;11.30;99.90
17152;DHT22;8691;50.828;4.700;2023-06-04T03:17:51;11.30;99.90
17152;DHT22;8691;50.828;4.700;2023-06-04T03:20:27;11.30;99.90
17152;DHT22;8691;50.828;4.700;2023-06-04T03:23:04;11.30;99.90
17152;DHT22;8691;50.828;4.700;2023-06-04T03:25:41;11.30;99.90
17152;DHT22;8691;50.828;4.700;2023-06-04T03:28:18;11.40;99.90
17152;DHT22;8691;50.828;4.700;2023-06-04T03:30:55;11.30;99.90
17152;DHT22;8691;50.828;4.700;2023-06-04T03:33:31;11.30;99.90
17152;DHT22;8691;50.828;4.700;2023-06-04T03:36:08;11.40;99.90
17152;DHT22;8691;50.828;4.700;2023-06-04T03:38:48;11.30;99.90
17152;DHT22;8691;50.828;4.700;2023-06-04T03:41:24;11.30;99.90
17152;DHT22;8691;50.828;4.700;2023-06-04T03:44:01;11.30;99.90
17152;DHT22;8691;50.828;4.700;2023-06-04T03:46:38;11.30;99.90
17152;DHT22;8691;50.828;4.700;2023-06-04T03:49:14;11.30;99.90
17152;DHT22;8691;50.828;4.700;2023-06-04T03:51:51;11.30;99.90
17152;DHT22;8691;50.828;4.700;2023-06-04T03:54:28;11.40;99.90
17152;DHT22;8691;50.828;4.700;2023-06-04T03:57:05;11.40;99.90
17152;DHT22;8691;50.828;4.700;2023-06-04T03:59:41;11.40;99.90
17152;DHT22;8691;50.828;4.700;2023-06-04T04:02:18;11.50;99.90
17152;DHT22;8691;50.828;4.700;2023-06-04T04:04:55;11.50;99.90
17152;DHT22;8691;50.828;4.700;2023-06-04T04:07:31;11.60;99.90
17152;DHT22;8691;50.828;4.700;2023-06-04T04:10:08;11.60;99.90
17152;DHT22;8691;50.828;4.700;2023-06-04T04:12:45;11.70;99.90
17152;DHT22;8691;50.828;4.700;2023-06-04T04:15:22;11.70;99.90
17152;DHT22;8691;50.828;4.700;2023-06-04T04:17:58;11.80;99.90
17152;DHT22;8691;50.828;4.700;2023-06-04T04:20:35;11.80;99.90
17152;DHT22;8691;50.828;4.700;2023-06-04T04:23:12;11.90;99.90
17152;DHT22;8691;50.828;4.700;2023-06-04T04:25:48;11.90;99.90
17152;DHT22;8691;50.828;4.700;2023-06-04T04:28:25;12.00;99.90
17152;DHT22;8691;50.828;4.700;2023-06-04T04:31:02;12.10;99.90
17152;DHT22;8691;50.828;4.700;2023-06-04T04:33:38;12.10;99.90
17152;DHT22;8691;50.828;4.700;2023-06-04T04:36:15;12.10;99.90
17152;DHT22;8691;50.828;4.700;2023-06-04T04:38:52;12.20;99.90
17152;DHT22;8691;50.828;4.700;2023-06-04T04:41:28;12.30;99.90
17152;DHT22;8691;50.828;4.700;2023-06-04T04:44:05;12.30;99.90
17152;DHT22;8691;50.828;4.700;2023-06-04T04:46:41;12.40;99.90
17152;DHT22;8691;50.828;4.700;2023-06-04T04:49:18;12.50;99.90
17152;DHT22;8691;50.828;4.700;2023-06-04T04:51:56;12.60;99.90
17152;DHT22;8691;50.828;4.700;2023-06-04T04:54:32;12.60;99.90
17152;DHT22;8691;50.828;4.700;2023-06-04T04:57:09;12.70;99.90
17152;DHT22;8691;50.828;4.700;2023-06-04T04:59:45;12.90;99.90
17152;DHT22;8691;50.828;4.700;2023-06-04T05:02:22;13.00;99.90
17152;DHT22;8691;50.828;4.700;2023-06-04T05:04:59;13.00;99.90
17152;DHT22;8691;50.828;4.700;2023-06-04T05:07:36;13.20;99.90
17152;DHT22;8691;50.828;4.700;2023-06-04T05:10:13;13.20;99.90
17152;DHT22;8691;50.828;4.700;2023-06-04T05:12:53;13.30;99.90
17152;DHT22;8691;50.828;4.700;2023-06-04T05:15:29;13.40;99.90
17152;DHT22;8691;50.828;4.700;2023-06-04T05:18:06;13.70;99.90
17152;DHT22;8691;50.828;4.700;2023-06-04T05:20:42;14.20;99.90
17152;DHT22;8691;50.828;4.700;2023-06-04T05:23:19;15.00;99.90
17152;DHT22;8691;50.828;4.700;2023-06-04T05:25:56;15.50;99.90
17152;DHT22;8691;50.828;4.700;2023-06-04T05:28:32;17.20;96.80
17152;DHT22;8691;50.828;4.700;2023-06-04T05:31:11;18.70;93.80
17152;DHT22;8691;50.828;4.700;2023-06-04T05:33:48;19.70;92.80
17152;DHT22;8691;50.828;4.700;2023-06-04T05:36:25;20.60;90.30
17152;DHT22;8691;50.828;4.700;2023-06-04T05:39:01;21.60;85.60
17152;DHT22;8691;50.828;4.700;2023-06-04T05:41:38;22.20;80.80
17152;DHT22;8691;50.828;4.700;2023-06-04T05:44:15;23.00;77.50
17152;DHT22;8691;50.828;4.700;2023-06-04T05:46:51;23.40;75.90
17152;DHT22;8691;50.828;4.700;2023-06-04T05:49:28;23.80;74.20
17152;DHT22;8691;50.828;4.700;2023-06-04T05:52:05;24.30;70.70
17152;DHT22;8691;50.828;4.700;2023-06-04T05:54:41;24.50;69.20
17152;DHT22;8691;50.828;4.700;2023-06-04T05:57:18;24.80;67.50
17152;DHT22;8691;50.828;4.700;2023-06-04T05:59:55;25.30;65.20
17152;DHT22;8691;50.828;4.700;2023-06-04T06:02:31;25.00;66.60
17152;DHT22;8691;50.828;4.700;2023-06-04T06:05:08;25.40;63.50
17152;DHT22;8691;50.828;4.700;2023-06-04T06:07:45;25.70;64.50
17152;DHT22;8691;50.828;4.700;2023-06-04T06:10:22;26.10;62.00
17152;DHT22;8691;50.828;4.700;2023-06-04T06:12:59;26.10;62.00
17152;DHT22;8691;50.828;4.700;2023-06-04T06:15:35;26.50;61.10
17152;DHT22;8691;50.828;4.700;2023-06-04T06:18:12;27.10;60.00
17152;DHT22;8691;50.828;4.700;2023-06-04T06:20:49;26.90;58.60
17152;DHT22;8691;50.828;4.700;2023-06-04T06:23:25;27.60;56.70
17152;DHT22;8691;50.828;4.700;2023-06-04T06:26:02;27.10;57.20
17152;DHT22;8691;50.828;4.700;2023-06-04T06:28:39;27.30;57.80
17152;DHT22;8691;50.828;4.700;2023-06-04T06:31:16;28.30;55.50
17152;DHT22;8691;50.828;4.700;2023-06-04T06:33:53;28.30;55.50
17152;DHT22;8691;50.828;4.700;2023-06-04T06:36:30;28.20;54.50
17152;DHT22;8691;50.828;4.700;2023-06-04T06:39:07;28.50;54.30
17152;DHT22;8691;50.828;4.700;2023-06-04T06:41:44;28.20;53.80
17152;DHT22;8691;50.828;4.700;2023-06-04T06:44:20;28.00;54.40
17152;DHT22;8691;50.828;4.700;2023-06-04T06:46:57;28.70;53.30
17152;DHT22;8691;50.828;4.700;2023-06-04T06:49:33;29.00;52.20
17152;DHT22;8691;50.828;4.700;2023-06-04T06:52:10;29.30;51.50
17152;DHT22;8691;50.828;4.700;2023-06-04T06:54:47;29.40;51.70
17152;DHT22;8691;50.828;4.700;2023-06-04T06:57:23;29.80;50.30
17152;DHT22;8691;50.828;4.700;2023-06-04T07:00:00;29.50;50.20
17152;DHT22;8691;50.828;4.700;2023-06-04T07:02:37;29.40;48.90
17152;DHT22;8691;50.828;4.700;2023-06-04T07:05:14;29.40;50.40
17152;DHT22;8691;50.828;4.700;2023-06-04T07:07:50;29.90;49.60
17152;DHT22;8691;50.828;4.700;2023-06-04T07:10:27;29.90;49.00
17152;DHT22;8691;50.828;4.700;2023-06-04T07:13:03;30.20;49.00
17152;DHT22;8691;50.828;4.700;2023-06-04T07:15:40;30.20;48.70
17152;DHT22;8691;50.828;4.700;2023-06-04T07:18:17;30.40;48.50
17152;DHT22;8691;50.828;4.700;2023-06-04T07:20:53;30.50;47.20
17152;DHT22;8691;50.828;4.700;2023-06-04T07:23:30;30.70;47.60
17152;DHT22;8691;50.828;4.700;2023-06-04T07:26:07;30.30;48.10
17152;DHT22;8691;50.828;4.700;2023-06-04T07:28:43;30.60;47.90
17152;DHT22;8691;50.828;4.700;2023-06-04T07:31:20;31.50;46.00
17152;DHT22;8691;50.828;4.700;2023-06-04T07:33:56;31.40;46.20
17152;DHT22;8691;50.828;4.700;2023-06-04T07:36:33;31.20;45.70
17152;DHT22;8691;50.828;4.700;2023-06-04T07:39:10;31.60;46.20
17152;DHT22;8691;50.828;4.700;2023-06-04T07:41:47;31.50;45.50
17152;DHT22;8691;50.828;4.700;2023-06-04T07:44:23;31.20;46.50
17152;DHT22;8691;50.828;4.700;2023-06-04T07:47:00;31.50;44.80
17152;DHT22;8691;50.828;4.700;2023-06-04T07:49:37;31.70;44.70
17152;DHT22;8691;50.828;4.700;2023-06-04T07:52:14;32.00;43.50
17152;DHT22;8691;50.828;4.700;2023-06-04T07:54:50;31.40;44.70
17152;DHT22;8691;50.828;4.700;2023-06-04T07:57:27;31.50;44.80
17152;DHT22;8691;50.828;4.700;2023-06-04T08:00:04;31.70;44.10
17152;DHT22;8691;50.828;4.700;2023-06-04T08:02:40;31.60;44.80
17152;DHT22;8691;50.828;4.700;2023-06-04T08:05:17;31.60;45.20
17152;DHT22;8691;50.828;4.700;2023-06-04T08:07:54;32.80;42.50
17152;DHT22;8691;50.828;4.700;2023-06-04T08:10:30;32.40;43.60
17152;DHT22;8691;50.828;4.700;2023-06-04T08:13:07;32.10;43.60
17152;DHT22;8691;50.828;4.700;2023-06-04T08:15:44;32.20;43.30
17152;DHT22;8691;50.828;4.700;2023-06-04T08:18:20;31.90;43.50
17152;DHT22;8691;50.828;4.700;2023-06-04T08:20:57;32.00;43.30
17152;DHT22;8691;50.828;4.700;2023-06-04T08:23:34;31.90;44.00
17152;DHT22;8691;50.828;4.700;2023-06-04T08:26:11;32.20;43.30
17152;DHT22;8691;50.828;4.700;2023-06-04T08:28:48;33.10;42.00
17152;DHT22;8691;50.828;4.700;2023-06-04T08:31:25;33.10;42.00
17152;DHT22;8691;50.828;4.700;2023-06-04T08:34:01;33.80;41.90
17152;DHT22;8691;50.828;4.700;2023-06-04T08:36:38;34.40;40.70
17152;DHT22;8691;50.828;4.700;2023-06-04T08:39:15;32.90;42.50
17152;DHT22;8691;50.828;4.700;2023-06-04T08:41:52;32.80;42.40
17152;DHT22;8691;50.828;4.700;2023-06-04T08:44:29;33.50;41.90
17152;DHT22;8691;50.828;4.700;2023-06-04T08:47:05;33.40;40.70
17152;DHT22;8691;50.828;4.700;2023-06-04T08:49:48;33.20;41.00
17152;DHT22;8691;50.828;4.700;2023-06-04T08:52:22;33.20;41.00
17152;DHT22;8691;50.828;4.700;2023-06-04T08:54:59;33.10;41.20
17152;DHT22;8691;50.828;4.700;2023-06-04T08:57:35;33.30;40.90
17152;DHT22;8691;50.828;4.700;2023-06-04T09:00:12;33.80;39.60
17152;DHT22;8691;50.828;4.700;2023-06-04T09:02:49;33.40;39.30
17152;DHT22;8691;50.828;4.700;2023-06-04T09:05:25;33.30;39.60
17152;DHT22;8691;50.828;4.700;2023-06-04T09:08:02;33.10;39.80
17152;DHT22;8691;50.828;4.700;2023-06-04T09:10:39;33.00;40.00
17152;DHT22;8691;50.828;4.700;2023-06-04T09:13:15;32.90;40.30
17152;DHT22;8691;50.828;4.700;2023-06-04T09:15:58;32.90;40.70
17152;DHT22;8691;50.828;4.700;2023-06-04T09:18:34;33.10;40.70
17152;DHT22;8691;50.828;4.700;2023-06-04T09:21:11;33.10;39.80
17152;DHT22;8691;50.828;4.700;2023-06-04T09:23:48;33.40;39.10
17152;DHT22;8691;50.828;4.700;2023-06-04T09:26:24;33.60;39.00
17152;DHT22;8691;50.828;4.700;2023-06-04T09:29:01;33.10;39.20
17152;DHT22;8691;50.828;4.700;2023-06-04T09:31:37;32.60;39.20
17152;DHT22;8691;50.828;4.700;2023-06-04T09:34:14;32.70;38.70
17152;DHT22;8691;50.828;4.700;2023-06-04T09:36:51;32.60;39.20
17152;DHT22;8691;50.828;4.700;2023-06-04T09:39:28;33.00;38.50
17152;DHT22;8691;50.828;4.700;2023-06-04T09:42:04;33.30;38.00
17152;DHT22;8691;50.828;4.700;2023-06-04T09:44:44;32.80;37.90
17152;DHT22;8691;50.828;4.700;2023-06-04T09:47:20;32.40;38.50
17152;DHT22;8691;50.828;4.700;2023-06-04T09:49:57;33.00;37.40
17152;DHT22;8691;50.828;4.700;2023-06-04T09:52:34;32.90;37.90
17152;DHT22;8691;50.828;4.700;2023-06-04T09:55:16;31.90;37.70
17152;DHT22;8691;50.828;4.700;2023-06-04T09:57:56;32.30;38.20
17152;DHT22;8691;50.828;4.700;2023-06-04T10:00:33;32.30;38.10
17152;DHT22;8691;50.828;4.700;2023-06-04T10:03:09;32.40;38.40
17152;DHT22;8691;50.828;4.700;2023-06-04T10:05:46;32.90;38.20
17152;DHT22;8691;50.828;4.700;2023-06-04T10:08:23;32.60;38.10
17152;DHT22;8691;50.828;4.700;2023-06-04T10:11:02;32.70;38.50
17152;DHT22;8691;50.828;4.700;2023-06-04T10:13:48;33.30;36.50
17152;DHT22;8691;50.828;4.700;2023-06-04T10:16:21;32.60;36.90
17152;DHT22;8691;50.828;4.700;2023-06-04T10:18:58;31.90;37.50
17152;DHT22;8691;50.828;4.700;2023-06-04T10:21:34;32.00;37.80
17152;DHT22;8691;50.828;4.700;2023-06-04T10:24:12;32.20;38.20
17152;DHT22;8691;50.828;4.700;2023-06-04T10:26:47;32.40;38.70
17152;DHT22;8691;50.828;4.700;2023-06-04T10:29:25;32.50;37.40
17152;DHT22;8691;50.828;4.700;2023-06-04T10:32:01;32.10;36.90
17152;DHT22;8691;50.828;4.700;2023-06-04T10:34:37;30.50;39.20
17152;DHT22;8691;50.828;4.700;2023-06-04T10:37:20;30.00;38.80
17152;DHT22;8691;50.828;4.700;2023-06-04T10:39:57;30.20;40.20
17152;DHT22;8691;50.828;4.700;2023-06-04T10:42:41;30.90;38.70
17152;DHT22;8691;50.828;4.700;2023-06-04T10:45:16;30.90;38.80
17152;DHT22;8691;50.828;4.700;2023-06-04T10:47:59;30.30;38.70
17152;DHT22;8691;50.828;4.700;2023-06-04T10:50:29;29.30;40.40
17152;DHT22;8691;50.828;4.700;2023-06-04T10:53:06;28.40;40.80
17152;DHT22;8691;50.828;4.700;2023-06-04T10:55:46;27.90;42.00
17152;DHT22;8691;50.828;4.700;2023-06-04T10:58:31;27.60;42.70
17152;DHT22;8691;50.828;4.700;2023-06-04T11:00:59;27.20;42.60
17152;DHT22;8691;50.828;4.700;2023-06-04T11:03:38;26.80;44.20
17152;DHT22;8691;50.828;4.700;2023-06-04T11:06:15;26.40;44.00
17152;DHT22;8691;50.828;4.700;2023-06-04T11:09:00;26.20;44.50
17152;DHT22;8691;50.828;4.700;2023-06-04T11:11:28;26.10;43.40
17152;DHT22;8691;50.828;4.700;2023-06-04T11:14:09;26.30;43.70
17152;DHT22;8691;50.828;4.700;2023-06-04T11:16:45;26.30;42.80
17152;DHT22;8691;50.828;4.700;2023-06-04T11:19:21;26.30;44.90
17152;DHT22;8691;50.828;4.700;2023-06-04T11:21:58;26.40;44.20
17152;DHT22;8691;50.828;4.700;2023-06-04T11:24:35;26.20;44.20
17152;DHT22;8691;50.828;4.700;2023-06-04T11:27:12;26.20;44.10
17152;DHT22;8691;50.828;4.700;2023-06-04T11:29:52;25.90;42.90
17152;DHT22;8691;50.828;4.700;2023-06-04T11:32:28;25.80;44.90
17152;DHT22;8691;50.828;4.700;2023-06-04T11:35:05;25.80;45.70
17152;DHT22;8691;50.828;4.700;2023-06-04T11:37:54;25.80;45.10
17152;DHT22;8691;50.828;4.700;2023-06-04T11:40:21;25.90;44.90
17152;DHT22;8691;50.828;4.700;2023-06-04T11:42:58;26.10;44.90
17152;DHT22;8691;50.828;4.700;2023-06-04T11:45:34;25.40;43.70
17152;DHT22;8691;50.828;4.700;2023-06-04T11:48:11;25.60;44.70
17152;DHT22;8691;50.828;4.700;2023-06-04T11:50:48;26.00;44.40
17152;DHT22;8691;50.828;4.700;2023-06-04T11:53:24;26.10;44.50
17152;DHT22;8691;50.828;4.700;2023-06-04T11:56:01;26.30;44.50
17152;DHT22;8691;50.828;4.700;2023-06-04T11:58:38;26.10;43.30
17152;DHT22;8691;50.828;4.700;2023-06-04T12:01:14;25.90;44.30
17152;DHT22;8691;50.828;4.700;2023-06-04T12:03:51;26.10;42.70
17152;DHT22;8691;50.828;4.700;2023-06-04T12:06:28;25.90;43.80
17152;DHT22;8691;50.828;4.700;2023-06-04T12:09:05;25.90;43.80
17152;DHT22;8691;50.828;4.700;2023-06-04T12:11:42;25.80;44.40
17152;DHT22;8691;50.828;4.700;2023-06-04T12:14:19;25.80;44.70
17152;DHT22;8691;50.828;4.700;2023-06-04T12:16:56;26.00;44.30
17152;DHT22;8691;50.828;4.700;2023-06-04T12:19:32;26.00;44.30
17152;DHT22;8691;50.828;4.700;2023-06-04T12:22:09;26.10;44.60
17152;DHT22;8691;50.828;4.700;2023-06-04T12:24:46;26.20;44.90
17152;DHT22;8691;50.828;4.700;2023-06-04T12:27:23;26.10;44.20
17152;DHT22;8691;50.828;4.700;2023-06-04T12:30:03;25.90;44.60
17152;DHT22;8691;50.828;4.700;2023-06-04T12:32:38;26.00;45.00
17152;DHT22;8691;50.828;4.700;2023-06-04T12:35:16;26.10;43.80
17152;DHT22;8691;50.828;4.700;2023-06-04T12:37:52;26.10;43.80
17152;DHT22;8691;50.828;4.700;2023-06-04T12:40:29;26.00;44.10
17152;DHT22;8691;50.828;4.700;2023-06-04T12:43:06;26.10;43.90
17152;DHT22;8691;50.828;4.700;2023-06-04T12:45:43;26.30;44.10
17152;DHT22;8691;50.828;4.700;2023-06-04T12:48:19;26.20;44.20
17152;DHT22;8691;50.828;4.700;2023-06-04T12:50:56;26.20;44.30
17152;DHT22;8691;50.828;4.700;2023-06-04T12:53:32;26.30;43.90
17152;DHT22;8691;50.828;4.700;2023-06-04T12:56:09;26.40;43.40
17152;DHT22;8691;50.828;4.700;2023-06-04T12:58:46;26.40;43.70
17152;DHT22;8691;50.828;4.700;2023-06-04T13:01:22;26.10;44.10
17152;DHT22;8691;50.828;4.700;2023-06-04T13:03:59;26.10;43.90
17152;DHT22;8691;50.828;4.700;2023-06-04T13:06:36;26.00;44.20
17152;DHT22;8691;50.828;4.700;2023-06-04T13:09:13;26.20;43.10
17152;DHT22;8691;50.828;4.700;2023-06-04T13:11:49;26.20;43.30
17152;DHT22;8691;50.828;4.700;2023-06-04T13:14:26;26.10;43.00
17152;DHT22;8691;50.828;4.700;2023-06-04T13:17:02;26.00;43.60
17152;DHT22;8691;50.828;4.700;2023-06-04T13:19:39;25.90;44.10
17152;DHT22;8691;50.828;4.700;2023-06-04T13:22:16;25.60;44.70
17152;DHT22;8691;50.828;4.700;2023-06-04T13:24:52;25.90;44.00
17152;DHT22;8691;50.828;4.700;2023-06-04T13:27:30;25.80;43.60
17152;DHT22;8691;50.828;4.700;2023-06-04T13:30:07;25.80;43.60
17152;DHT22;8691;50.828;4.700;2023-06-04T13:32:44;25.80;43.60
17152;DHT22;8691;50.828;4.700;2023-06-04T13:35:20;25.60;44.40
17152;DHT22;8691;50.828;4.700;2023-06-04T13:37:57;25.70;43.90
17152;DHT22;8691;50.828;4.700;2023-06-04T13:40:34;25.70;43.80
17152;DHT22;8691;50.828;4.700;2023-06-04T13:43:10;25.70;42.40
17152;DHT22;8691;50.828;4.700;2023-06-04T13:45:47;25.70;42.90
17152;DHT22;8691;50.828;4.700;2023-06-04T13:48:23;25.80;43.50
17152;DHT22;8691;50.828;4.700;2023-06-04T13:51:00;25.80;44.00
17152;DHT22;8691;50.828;4.700;2023-06-04T13:53:37;25.90;44.40
17152;DHT22;8691;50.828;4.700;2023-06-04T13:56:13;26.00;44.00
17152;DHT22;8691;50.828;4.700;2023-06-04T13:58:50;26.20;43.30
17152;DHT22;8691;50.828;4.700;2023-06-04T14:01:27;26.30;42.90
17152;DHT22;8691;50.828;4.700;2023-06-04T14:04:03;26.10;42.70
17152;DHT22;8691;50.828;4.700;2023-06-04T14:06:40;26.00;44.00
17152;DHT22;8691;50.828;4.700;2023-06-04T14:09:17;26.10;43.30
17152;DHT22;8691;50.828;4.700;2023-06-04T14:11:53;26.10;43.80
17152;DHT22;8691;50.828;4.700;2023-06-04T14:14:30;26.00;43.10
17152;DHT22;8691;50.828;4.700;2023-06-04T14:17:07;25.80;42.80
17152;DHT22;8691;50.828;4.700;2023-06-04T14:19:44;25.90;43.50
17152;DHT22;8691;50.828;4.700;2023-06-04T14:22:20;25.90;43.90
17152;DHT22;8691;50.828;4.700;2023-06-04T14:24:57;26.10;42.60
17152;DHT22;8691;50.828;4.700;2023-06-04T14:27:34;26.00;42.00
17152;DHT22;8691;50.828;4.700;2023-06-04T14:30:10;25.90;42.90
17152;DHT22;8691;50.828;4.700;2023-06-04T14:32:47;26.00;42.60
17152;DHT22;8691;50.828;4.700;2023-06-04T14:35:24;25.90;42.50
17152;DHT22;8691;50.828;4.700;2023-06-04T14:38:00;25.90;43.50
17152;DHT22;8691;50.828;4.700;2023-06-04T14:40:37;25.80;42.70
17152;DHT22;8691;50.828;4.700;2023-06-04T14:43:14;25.90;42.60
17152;DHT22;8691;50.828;4.700;2023-06-04T14:45:50;25.80;42.50
17152;DHT22;8691;50.828;4.700;2023-06-04T14:48:27;25.70;43.20
17152;DHT22;8691;50.828;4.700;2023-06-04T14:51:03;25.70;42.40
17152;DHT22;8691;50.828;4.700;2023-06-04T14:53:40;25.50;41.80
17152;DHT22;8691;50.828;4.700;2023-06-04T14:56:17;25.30;42.00
17152;DHT22;8691;50.828;4.700;2023-06-04T14:58:53;25.20;42.80
17152;DHT22;8691;50.828;4.700;2023-06-04T15:01:30;25.30;43.20
17152;DHT22;8691;50.828;4.700;2023-06-04T15:04:07;25.50;43.00
17152;DHT22;8691;50.828;4.700;2023-06-04T15:06:44;25.60;42.30
17152;DHT22;8691;50.828;4.700;2023-06-04T15:09:20;25.80;41.40
17152;DHT22;8691;50.828;4.700;2023-06-04T15:11:57;25.70;41.20
17152;DHT22;8691;50.828;4.700;2023-06-04T15:14:33;25.80;41.50
17152;DHT22;8691;50.828;4.700;2023-06-04T15:17:10;25.70;41.50
17152;DHT22;8691;50.828;4.700;2023-06-04T15:19:47;25.60;42.50
17152;DHT22;8691;50.828;4.700;2023-06-04T15:22:23;25.70;42.60
17152;DHT22;8691;50.828;4.700;2023-06-04T15:25:00;25.70;42.30
17152;DHT22;8691;50.828;4.700;2023-06-04T15:27:37;25.60;42.10
17152;DHT22;8691;50.828;4.700;2023-06-04T15:30:14;25.40;41.80
17152;DHT22;8691;50.828;4.700;2023-06-04T15:32:50;25.60;41.80
17152;DHT22;8691;50.828;4.700;2023-06-04T15:35:28;25.50;42.00
17152;DHT22;8691;50.828;4.700;2023-06-04T15:38:04;25.50;42.00
17152;DHT22;8691;50.828;4.700;2023-06-04T15:40:41;25.60;41.30
17152;DHT22;8691;50.828;4.700;2023-06-04T15:43:17;25.40;42.10
17152;DHT22;8691;50.828;4.700;2023-06-04T15:45:54;25.40;41.70
17152;DHT22;8691;50.828;4.700;2023-06-04T15:48:31;25.40;41.70
17152;DHT22;8691;50.828;4.700;2023-06-04T15:51:07;25.50;41.00
17152;DHT22;8691;50.828;4.700;2023-06-04T15:53:44;25.30;41.50
17152;DHT22;8691;50.828;4.700;2023-06-04T15:56:21;25.10;41.70
17152;DHT22;8691;50.828;4.700;2023-06-04T15:58:57;25.10;41.20
17152;DHT22;8691;50.828;4.700;2023-06-04T16:01:34;25.00;42.30
17152;DHT22;8691;50.828;4.700;2023-06-04T16:04:11;25.10;42.10
17152;DHT22;8691;50.828;4.700;2023-06-04T16:06:47;25.20;42.10
17152;DHT22;8691;50.828;4.700;2023-06-04T16:09:24;25.20;42.40
17152;DHT22;8691;50.828;4.700;2023-06-04T16:12:00;25.20;43.40
17152;DHT22;8691;50.828;4.700;2023-06-04T16:14:37;25.30;42.30
17152;DHT22;8691;50.828;4.700;2023-06-04T16:17:14;25.20;42.80
17152;DHT22;8691;50.828;4.700;2023-06-04T16:19:50;25.10;43.00
17152;DHT22;8691;50.828;4.700;2023-06-04T16:22:27;25.10;42.80
17152;DHT22;8691;50.828;4.700;2023-06-04T16:25:04;25.10;43.10
17152;DHT22;8691;50.828;4.700;2023-06-04T16:27:40;25.10;42.50
17152;DHT22;8691;50.828;4.700;2023-06-04T16:30:17;25.00;43.80
17152;DHT22;8691;50.828;4.700;2023-06-04T16:32:54;25.00;42.80
17152;DHT22;8691;50.828;4.700;2023-06-04T16:35:33;25.00;43.00
17152;DHT22;8691;50.828;4.700;2023-06-04T16:38:10;25.00;42.90
17152;DHT22;8691;50.828;4.700;2023-06-04T16:40:46;25.00;43.40
17152;DHT22;8691;50.828;4.700;2023-06-04T16:43:23;24.90;42.90
17152;DHT22;8691;50.828;4.700;2023-06-04T16:46:00;24.90;43.60
17152;DHT22;8691;50.828;4.700;2023-06-04T16:48:37;24.80;44.70
17152;DHT22;8691;50.828;4.700;2023-06-04T16:51:14;24.80;44.70
17152;DHT22;8691;50.828;4.700;2023-06-04T16:53:51;24.80;45.30
17152;DHT22;8691;50.828;4.700;2023-06-04T16:56:28;25.00;43.50